New Marshfield, Ohio
Current Conditions -  °F | °C
As of 1:15 AM on Sunday 26 Oct 2014 (Local Time) from KUNI Reporting Station
Moderate Fog Moderate Fog  
Wind Chill: 48°   Ceiling: 100
Heat Index: 48°   Visibility: 0mi
Dew Point: 46°   Wind: 0mph
Humidity: 95%   Direction: NA
Pressure: 29.88"   Gusts: NA
Location:  39.33°N, 82.25°W
Report Text: KUNI 260515Z AUTO 00000KT M1/4SM FG OVC001 09/08 A2988 RMK AO2 T00870079
Loading
Personal Weather Stations






























Interactive Weather Map
Tropical Storm Tracking
New forecast layout! Learn more

10-Day Weather Forecast

Advertisements
Track Severe Weather on mobile